createdAt,value
2017-10-31T00:01:10.724Z,4.50
2017-10-31T00:03:37.230Z,4.60
2017-10-31T00:06:03.675Z,4.50
2017-10-31T00:08:30.718Z,4.40
2017-10-31T00:10:56.962Z,4.40
2017-10-31T00:13:23.346Z,4.30
2017-10-31T00:15:50.352Z,4.30
2017-10-31T00:18:18.086Z,4.30
2017-10-31T00:20:44.650Z,4.30
2017-10-31T00:23:10.983Z,4.30
2017-10-31T00:25:37.883Z,4.20
2017-10-31T00:28:04.249Z,4.20
2017-10-31T00:30:30.509Z,4.10
2017-10-31T00:32:56.950Z,4.10
2017-10-31T00:35:24.067Z,4.10
2017-10-31T00:37:50.325Z,4.10
2017-10-31T00:40:16.624Z,4.10
2017-10-31T00:42:42.905Z,4.10
2017-10-31T00:45:09.306Z,4.20
2017-10-31T00:47:35.549Z,4.10
2017-10-31T00:50:01.862Z,4.00
2017-10-31T00:52:28.194Z,4.00
2017-10-31T00:54:54.429Z,4.00
2017-10-31T00:57:22.088Z,4.00
2017-10-31T00:59:48.621Z,3.90
2017-10-31T01:02:14.946Z,3.90
2017-10-31T01:04:41.250Z,3.90
2017-10-31T01:07:07.665Z,3.90
2017-10-31T01:09:33.995Z,3.80
2017-10-31T01:12:00.450Z,3.80
2017-10-31T01:14:26.734Z,3.80
2017-10-31T01:16:53.023Z,3.80
2017-10-31T01:19:19.433Z,3.90
2017-10-31T01:21:45.660Z,3.90
2017-10-31T01:24:12.064Z,3.80
2017-10-31T01:26:38.289Z,3.80
2017-10-31T01:29:04.587Z,3.80
2017-10-31T01:31:30.985Z,3.80
2017-10-31T01:33:57.251Z,3.70
2017-10-31T01:36:24.096Z,3.70
2017-10-31T01:38:50.541Z,3.60
2017-10-31T01:41:16.894Z,3.70
2017-10-31T01:43:43.200Z,3.70
2017-10-31T01:46:09.818Z,3.80
2017-10-31T01:48:36.381Z,3.80
2017-10-31T01:51:02.795Z,3.70
2017-10-31T01:53:29.166Z,3.70
2017-10-31T01:55:55.596Z,3.70
2017-10-31T01:58:21.965Z,3.60
2017-10-31T02:00:48.356Z,3.60
2017-10-31T02:03:15.052Z,3.60
2017-10-31T02:05:41.775Z,3.60
2017-10-31T02:08:08.969Z,3.50
2017-10-31T02:10:36.130Z,3.40
2017-10-31T02:13:03.078Z,3.40
2017-10-31T02:15:29.408Z,3.40
2017-10-31T02:17:55.777Z,3.40
2017-10-31T02:20:22.366Z,3.40
2017-10-31T02:22:48.742Z,3.40
2017-10-31T02:25:15.308Z,3.40
2017-10-31T02:27:42.456Z,3.30
2017-10-31T02:30:09.095Z,3.30
2017-10-31T02:32:35.453Z,3.30
2017-10-31T02:35:01.841Z,3.30
2017-10-31T02:37:29.222Z,3.20
2017-10-31T02:39:55.609Z,3.20
2017-10-31T02:42:23.070Z,3.20
2017-10-31T02:44:49.415Z,3.20
2017-10-31T02:47:15.726Z,3.20
2017-10-31T02:49:42.263Z,3.20
2017-10-31T02:52:08.791Z,3.20
2017-10-31T02:54:35.105Z,3.20
2017-10-31T02:57:01.452Z,3.30
2017-10-31T02:59:27.697Z,3.20
2017-10-31T03:01:53.973Z,3.20
2017-10-31T03:04:20.461Z,3.20
2017-10-31T03:06:47.014Z,3.20
2017-10-31T03:09:13.340Z,3.20
2017-10-31T03:11:39.650Z,3.10
2017-10-31T03:14:06.710Z,3.10
2017-10-31T03:16:32.972Z,3.10
2017-10-31T03:18:59.305Z,3.10
2017-10-31T03:21:26.300Z,3.00
2017-10-31T03:23:52.714Z,3.00
2017-10-31T03:26:19.111Z,3.00
2017-10-31T03:28:45.404Z,3.00
2017-10-31T03:31:12.341Z,3.00
2017-10-31T03:33:38.648Z,3.00
2017-10-31T03:36:04.918Z,2.90
2017-10-31T03:38:31.222Z,2.90
2017-10-31T03:40:58.277Z,2.90
2017-10-31T03:43:24.608Z,2.90
2017-10-31T03:45:51.714Z,2.80
2017-10-31T03:48:18.093Z,2.80
2017-10-31T03:50:44.407Z,2.80
2017-10-31T03:53:10.890Z,2.70
2017-10-31T03:55:37.182Z,2.80
2017-10-31T03:58:03.477Z,2.70
2017-10-31T04:00:29.777Z,2.60
2017-10-31T04:02:56.180Z,2.70
2017-10-31T04:05:22.506Z,2.60
2017-10-31T04:07:48.946Z,2.70
2017-10-31T04:10:15.737Z,2.70
2017-10-31T04:12:42.189Z,2.80
2017-10-31T04:15:08.606Z,2.70
2017-10-31T04:17:34.901Z,2.70
2017-10-31T04:20:01.233Z,2.70
2017-10-31T04:22:27.492Z,2.70
2017-10-31T04:24:53.754Z,2.60
2017-10-31T04:27:20.086Z,2.60
2017-10-31T04:29:46.498Z,2.60
2017-10-31T04:32:12.787Z,2.50
2017-10-31T04:34:39.037Z,2.60
2017-10-31T04:37:05.600Z,2.60
2017-10-31T04:39:32.590Z,2.50
2017-10-31T04:41:58.914Z,2.50
2017-10-31T04:44:25.252Z,2.40
2017-10-31T04:46:52.260Z,2.50
2017-10-31T04:49:18.514Z,2.50
2017-10-31T04:51:44.838Z,2.50
2017-10-31T04:54:11.401Z,2.40
2017-10-31T04:56:37.754Z,2.50
2017-10-31T04:59:04.924Z,2.40
2017-10-31T05:01:31.186Z,2.40
2017-10-31T05:03:57.513Z,2.40
2017-10-31T05:06:23.958Z,2.40
2017-10-31T05:08:50.215Z,2.40
2017-10-31T05:11:16.642Z,2.40
2017-10-31T05:13:43.440Z,2.40
2017-10-31T05:16:09.682Z,2.40
2017-10-31T05:18:36.071Z,2.40
2017-10-31T05:21:02.886Z,2.40
2017-10-31T05:23:29.420Z,2.30
2017-10-31T05:25:57.182Z,2.20
2017-10-31T05:28:24.854Z,2.10
2017-10-31T05:30:51.195Z,2.10
2017-10-31T05:33:18.209Z,2.10
2017-10-31T05:35:44.448Z,2.10
2017-10-31T05:38:10.733Z,2.20
2017-10-31T05:40:37.154Z,2.10
2017-10-31T05:43:03.617Z,2.20
2017-10-31T05:45:30.142Z,2.10
2017-10-31T05:47:56.383Z,2.10
2017-10-31T05:50:22.765Z,2.10
2017-10-31T05:52:49.080Z,2.10
2017-10-31T05:55:15.519Z,2.10
2017-10-31T05:57:41.793Z,2.10
2017-10-31T06:00:08.816Z,2.10
2017-10-31T06:02:35.064Z,2.10
2017-10-31T06:05:01.323Z,2.10
2017-10-31T06:07:28.325Z,2.20
2017-10-31T06:09:54.689Z,2.10
2017-10-31T06:12:20.927Z,2.20
2017-10-31T06:14:48.351Z,2.20
2017-10-31T06:17:14.641Z,2.20
2017-10-31T06:19:40.930Z,2.30
2017-10-31T06:22:13.393Z,2.20
2017-10-31T06:24:45.686Z,2.30
2017-10-31T06:27:18.093Z,2.30
2017-10-31T06:29:50.395Z,2.30
2017-10-31T06:32:16.622Z,2.30
2017-10-31T06:34:42.865Z,2.30
2017-10-31T06:37:10.614Z,2.40
2017-10-31T06:39:36.919Z,2.50
2017-10-31T06:42:03.771Z,2.50
2017-10-31T06:44:30.427Z,2.50
2017-10-31T06:46:57.849Z,2.50
2017-10-31T06:49:24.146Z,2.50
2017-10-31T06:51:50.497Z,2.50
2017-10-31T06:54:16.770Z,2.60
2017-10-31T06:56:43.264Z,2.60
2017-10-31T06:59:09.620Z,2.70
2017-10-31T07:01:35.957Z,2.70
2017-10-31T07:04:02.245Z,2.90
2017-10-31T07:06:28.465Z,3.00
2017-10-31T07:08:54.692Z,3.20
2017-10-31T07:11:20.962Z,3.10
2017-10-31T07:13:47.254Z,3.20
2017-10-31T07:16:13.524Z,3.40
2017-10-31T07:18:39.752Z,3.50
2017-10-31T07:21:06.110Z,3.50
2017-10-31T07:23:33.080Z,3.70
2017-10-31T07:25:59.386Z,3.70
2017-10-31T07:28:25.684Z,3.60
2017-10-31T07:30:51.971Z,3.70
2017-10-31T07:33:18.276Z,3.80
2017-10-31T07:35:44.598Z,3.80
2017-10-31T07:38:11.027Z,3.90
2017-10-31T07:40:37.370Z,4.00
2017-10-31T07:43:03.600Z,4.00
2017-10-31T07:45:29.830Z,4.00
2017-10-31T07:47:56.082Z,4.10
2017-10-31T07:50:22.318Z,4.20
2017-10-31T07:52:49.269Z,4.20
2017-10-31T07:55:15.589Z,4.20
2017-10-31T07:57:41.945Z,4.20
2017-10-31T08:00:08.481Z,4.30
2017-10-31T08:02:35.461Z,4.40
2017-10-31T08:05:01.710Z,4.40
2017-10-31T08:07:28.029Z,4.40
2017-10-31T08:09:54.310Z,4.50
2017-10-31T08:12:20.667Z,4.60
2017-10-31T08:14:47.605Z,4.70
2017-10-31T08:17:14.196Z,4.70
2017-10-31T08:19:40.404Z,4.70
2017-10-31T08:22:06.868Z,4.80
2017-10-31T08:24:33.245Z,4.90
2017-10-31T08:26:59.471Z,4.90
2017-10-31T08:29:25.803Z,5.00
2017-10-31T08:31:52.068Z,5.00
2017-10-31T08:34:18.506Z,5.10
2017-10-31T08:36:44.787Z,5.10
2017-10-31T08:39:11.075Z,5.10
2017-10-31T08:41:37.601Z,5.10
2017-10-31T08:44:04.182Z,5.10
2017-10-31T08:46:30.431Z,5.20
2017-10-31T08:48:57.523Z,5.20
2017-10-31T08:51:23.809Z,5.30
2017-10-31T08:53:50.139Z,5.30
2017-10-31T08:56:16.380Z,5.30
2017-10-31T08:58:42.641Z,5.30
2017-10-31T09:01:08.910Z,5.40
2017-10-31T09:03:35.174Z,5.50
2017-10-31T09:06:01.523Z,5.50
2017-10-31T09:08:27.829Z,5.60
2017-10-31T09:10:54.167Z,5.60
2017-10-31T09:13:20.467Z,5.70
2017-10-31T09:15:46.794Z,5.70
2017-10-31T09:18:13.046Z,5.70
2017-10-31T09:20:40.080Z,5.70
2017-10-31T09:23:07.209Z,5.80
2017-10-31T09:25:34.244Z,5.90
2017-10-31T09:28:01.294Z,6.00
2017-10-31T09:30:27.660Z,5.90
2017-10-31T09:32:58.542Z,6.10
2017-10-31T09:35:24.800Z,6.10
2017-10-31T09:37:51.060Z,6.10
2017-10-31T09:40:17.317Z,6.30
2017-10-31T09:42:43.676Z,6.40
2017-10-31T09:45:10.699Z,6.60
2017-10-31T09:47:37.720Z,6.60
2017-10-31T09:50:04.004Z,6.60
2017-10-31T09:52:30.293Z,6.70
2017-10-31T09:54:56.508Z,6.80
2017-10-31T09:57:22.821Z,6.90
2017-10-31T09:59:49.241Z,7.00
2017-10-31T10:02:15.491Z,7.00
2017-10-31T10:04:41.713Z,7.10
2017-10-31T10:07:07.972Z,7.20
2017-10-31T10:09:34.396Z,7.20
2017-10-31T10:12:00.720Z,7.30
2017-10-31T10:14:27.171Z,7.50
2017-10-31T10:16:53.411Z,7.60
2017-10-31T10:19:19.706Z,7.80
2017-10-31T10:21:46.700Z,7.90
2017-10-31T10:24:12.986Z,7.90
2017-10-31T10:26:39.285Z,8.00
2017-10-31T10:29:05.571Z,8.00
2017-10-31T10:31:31.850Z,8.00
2017-10-31T10:33:58.178Z,8.10
2017-10-31T10:36:24.482Z,8.20
2017-10-31T10:38:51.038Z,8.30
2017-10-31T10:41:17.302Z,8.40
2017-10-31T10:43:44.346Z,8.60
2017-10-31T10:46:10.605Z,8.60
2017-10-31T10:48:36.873Z,8.80
2017-10-31T10:51:03.187Z,8.80
2017-10-31T10:53:29.516Z,8.90
2017-10-31T10:55:55.794Z,8.90
2017-10-31T10:58:22.617Z,9.00
2017-10-31T11:00:49.654Z,9.10
2017-10-31T11:03:18.674Z,9.10
2017-10-31T11:05:44.949Z,9.20
2017-10-31T11:08:11.198Z,9.30
2017-10-31T11:10:37.460Z,9.40
2017-10-31T11:13:03.782Z,9.40
2017-10-31T11:15:30.183Z,9.50
2017-10-31T11:17:56.471Z,9.60
2017-10-31T11:20:23.462Z,9.70
2017-10-31T11:22:50.581Z,9.70
2017-10-31T11:25:16.825Z,9.70
2017-10-31T11:27:43.136Z,9.80
2017-10-31T11:30:09.377Z,9.80
2017-10-31T11:32:35.615Z,9.80
2017-10-31T11:35:01.909Z,9.90
2017-10-31T11:37:28.242Z,10.00
2017-10-31T11:39:54.522Z,10.10
2017-10-31T11:42:20.865Z,10.20
2017-10-31T11:44:50.141Z,10.50
2017-10-31T11:47:16.670Z,10.40
2017-10-31T11:49:42.977Z,10.50
2017-10-31T11:52:09.290Z,10.50
2017-10-31T11:54:35.615Z,10.60
2017-10-31T11:57:01.949Z,10.60
2017-10-31T11:59:28.254Z,10.60
2017-10-31T12:01:54.524Z,10.70
2017-10-31T12:04:21.608Z,10.90
2017-10-31T12:06:47.888Z,10.80
2017-10-31T12:09:14.185Z,11.00
2017-10-31T12:11:40.718Z,11.00
2017-10-31T12:14:07.150Z,11.00
2017-10-31T12:16:33.413Z,10.90
2017-10-31T12:18:59.765Z,10.80
2017-10-31T12:21:26.160Z,10.90
2017-10-31T12:23:52.407Z,11.10
2017-10-31T12:26:18.772Z,11.30
2017-10-31T12:28:45.858Z,11.50
2017-10-31T12:31:12.156Z,11.40
2017-10-31T12:33:38.474Z,11.60
2017-10-31T12:36:04.824Z,11.70
2017-10-31T12:38:31.100Z,11.60
2017-10-31T12:40:57.361Z,11.60
2017-10-31T12:43:23.798Z,11.60
2017-10-31T12:45:50.121Z,11.60
2017-10-31T12:48:16.717Z,11.60
2017-10-31T12:50:55.415Z,11.70
2017-10-31T12:53:22.042Z,11.80
2017-10-31T12:55:56.229Z,11.70
2017-10-31T12:58:23.061Z,11.80
2017-10-31T13:00:52.894Z,11.70
2017-10-31T13:03:19.548Z,11.70
2017-10-31T13:05:48.534Z,11.70
2017-10-31T13:08:16.156Z,11.80
2017-10-31T13:10:42.493Z,11.80
2017-10-31T13:13:08.878Z,11.70
2017-10-31T13:15:35.706Z,11.60
2017-10-31T13:18:03.991Z,11.60
2017-10-31T13:20:30.472Z,11.60
2017-10-31T13:22:56.931Z,11.50
2017-10-31T13:25:23.213Z,11.50
2017-10-31T13:27:50.336Z,11.50
2017-10-31T13:30:18.066Z,11.60
2017-10-31T13:32:46.253Z,11.50
2017-10-31T13:35:13.483Z,11.40
2017-10-31T13:37:40.364Z,11.40
2017-10-31T13:40:07.369Z,11.40
2017-10-31T13:42:35.421Z,11.40
2017-10-31T13:45:01.678Z,11.40
2017-10-31T13:47:28.572Z,11.40
2017-10-31T13:49:55.608Z,11.30
2017-10-31T13:52:22.482Z,11.30
2017-10-31T13:54:51.208Z,11.30
2017-10-31T13:57:17.765Z,11.30
2017-10-31T13:59:44.862Z,11.30
2017-10-31T14:02:11.734Z,11.20
2017-10-31T14:04:39.419Z,11.20
2017-10-31T14:07:13.870Z,11.20
2017-10-31T14:12:13.993Z,11.20
2017-10-31T14:14:40.325Z,11.20
2017-10-31T14:17:06.637Z,11.20
2017-10-31T14:19:34.002Z,11.20
2017-10-31T14:22:00.942Z,11.10
2017-10-31T14:24:28.242Z,11.10
2017-10-31T14:26:54.696Z,11.10
2017-10-31T14:29:22.065Z,11.10
2017-10-31T14:31:48.354Z,11.10
2017-10-31T14:34:14.688Z,11.10
2017-10-31T14:36:41.076Z,11.10
2017-10-31T14:39:07.328Z,11.10
2017-10-31T14:41:33.605Z,11.00
2017-10-31T14:44:02.579Z,10.90
2017-10-31T14:46:28.930Z,10.90
2017-10-31T14:48:55.151Z,10.90
2017-10-31T14:51:21.848Z,10.80
2017-10-31T14:53:49.450Z,10.80
2017-10-31T14:56:15.886Z,10.80
2017-10-31T14:58:42.963Z,10.80
2017-10-31T15:01:09.228Z,10.70
2017-10-31T15:03:35.527Z,10.80
2017-10-31T15:06:03.196Z,10.80
2017-10-31T15:08:45.708Z,10.70
2017-10-31T15:11:13.773Z,10.80
2017-10-31T15:13:40.186Z,10.70
2017-10-31T15:16:06.510Z,10.70
2017-10-31T15:18:32.833Z,10.70
2017-10-31T15:21:01.095Z,10.60
2017-10-31T15:23:30.738Z,10.60
2017-10-31T15:25:57.028Z,10.50
2017-10-31T15:28:27.495Z,10.50
2017-10-31T15:30:53.842Z,10.50
2017-10-31T15:33:20.067Z,10.50
2017-10-31T15:35:46.705Z,10.50
2017-10-31T15:38:13.028Z,10.40
2017-10-31T15:40:39.337Z,10.40
2017-10-31T15:43:06.529Z,10.30
2017-10-31T15:45:33.850Z,10.30
2017-10-31T15:48:00.169Z,10.30
2017-10-31T15:50:27.688Z,10.30
2017-10-31T15:52:54.026Z,10.20
2017-10-31T15:55:20.534Z,10.20
2017-10-31T15:57:46.872Z,10.20
2017-10-31T16:00:13.266Z,10.20
2017-10-31T16:02:39.488Z,10.20
2017-10-31T16:05:06.055Z,10.10
2017-10-31T16:07:33.167Z,10.10
2017-10-31T16:09:59.631Z,10.10
2017-10-31T16:12:26.338Z,10.10
2017-10-31T16:14:52.588Z,10.10
2017-10-31T16:17:18.909Z,10.10
2017-10-31T16:19:45.146Z,10.00
2017-10-31T16:22:11.519Z,10.00
2017-10-31T16:24:37.853Z,10.00
2017-10-31T16:27:04.149Z,10.00
2017-10-31T16:29:30.540Z,10.00
2017-10-31T16:31:56.943Z,9.90
2017-10-31T16:34:24.116Z,9.80
2017-10-31T16:36:50.418Z,9.80
2017-10-31T16:39:16.723Z,9.80
2017-10-31T16:41:43.122Z,9.70
2017-10-31T16:44:09.442Z,9.70
2017-10-31T16:46:35.711Z,9.70
2017-10-31T16:49:02.196Z,9.60
2017-10-31T16:51:28.529Z,9.70
2017-10-31T16:53:55.883Z,9.50
2017-10-31T16:56:22.803Z,9.50
2017-10-31T16:58:49.342Z,9.50
2017-10-31T17:01:16.119Z,9.50
2017-10-31T17:03:47.246Z,9.40
2017-10-31T17:06:15.628Z,9.40
2017-10-31T17:08:42.558Z,9.40
2017-10-31T17:11:12.717Z,9.40
2017-10-31T17:13:46.088Z,9.40
2017-10-31T17:16:18.029Z,9.40
2017-10-31T17:18:44.380Z,9.40
2017-10-31T17:21:15.576Z,9.40
2017-10-31T17:23:41.977Z,9.40
2017-10-31T17:26:08.965Z,9.40
2017-10-31T17:28:35.260Z,9.30
2017-10-31T17:31:01.582Z,9.30
2017-10-31T17:33:27.897Z,9.40
2017-10-31T17:35:54.711Z,9.30
2017-10-31T17:38:23.050Z,9.30
2017-10-31T17:40:49.427Z,9.30
2017-10-31T17:43:15.709Z,9.30
2017-10-31T17:45:48.675Z,9.30
2017-10-31T17:48:15.320Z,9.30
2017-10-31T17:50:41.618Z,9.30
2017-10-31T17:53:08.036Z,9.30
2017-10-31T17:55:34.453Z,9.20
2017-10-31T17:58:00.775Z,9.30
2017-10-31T18:00:27.200Z,9.20
2017-10-31T18:02:53.669Z,9.30
2017-10-31T18:05:19.925Z,9.30
2017-10-31T18:07:51.391Z,9.30
2017-10-31T18:10:18.558Z,9.30
2017-10-31T18:12:47.916Z,9.30
2017-10-31T18:15:14.554Z,9.30
2017-10-31T18:17:54.763Z,9.40
2017-10-31T18:20:22.640Z,9.30
2017-10-31T18:28:23.803Z,9.30
2017-10-31T18:30:50.090Z,9.30
2017-10-31T18:33:16.569Z,9.30
2017-10-31T18:35:42.934Z,9.30
2017-10-31T18:38:09.382Z,9.30
2017-10-31T18:40:35.864Z,9.30
2017-10-31T18:43:02.405Z,9.30
2017-10-31T18:45:28.662Z,9.30
2017-10-31T18:47:55.051Z,9.30
2017-10-31T18:50:21.368Z,9.30
2017-10-31T18:52:48.530Z,9.20
2017-10-31T18:55:14.918Z,9.20
2017-10-31T18:57:41.372Z,9.20
2017-10-31T19:00:09.540Z,9.30
2017-10-31T19:02:36.128Z,9.30
2017-10-31T19:05:02.583Z,9.20
2017-10-31T19:07:29.036Z,9.20
2017-10-31T19:09:55.514Z,9.20
2017-10-31T19:12:21.861Z,9.20
2017-10-31T19:14:48.240Z,9.20
2017-10-31T19:17:14.488Z,9.30
2017-10-31T19:19:41.506Z,9.20
2017-10-31T19:22:08.268Z,9.20
2017-10-31T19:24:34.666Z,9.20
2017-10-31T19:27:01.749Z,9.20
2017-10-31T19:29:28.754Z,9.20
2017-10-31T19:31:55.107Z,9.10
2017-10-31T19:34:21.410Z,9.20
2017-10-31T19:36:47.914Z,9.10
2017-10-31T19:39:14.218Z,9.10
2017-10-31T19:41:40.765Z,9.10
2017-10-31T19:44:07.135Z,9.10
2017-10-31T19:46:33.551Z,9.10
2017-10-31T19:49:00.095Z,9.10
2017-10-31T19:51:27.170Z,9.10
2017-10-31T19:53:53.557Z,9.10
2017-10-31T19:56:19.962Z,9.10
2017-10-31T19:58:46.261Z,9.10
2017-10-31T20:01:12.682Z,9.20
2017-10-31T20:03:39.131Z,9.10
2017-10-31T20:06:05.502Z,9.10
2017-10-31T20:08:32.197Z,9.10
2017-10-31T20:10:58.688Z,9.10
2017-10-31T20:13:25.172Z,9.10
2017-10-31T20:15:51.545Z,9.10
2017-10-31T20:18:17.856Z,9.10
2017-10-31T20:20:44.852Z,9.10
2017-10-31T20:23:11.224Z,9.10
2017-10-31T20:25:37.663Z,9.00
2017-10-31T20:28:04.806Z,9.10
2017-10-31T20:30:31.067Z,9.10
2017-10-31T20:32:57.420Z,9.10
2017-10-31T20:35:26.133Z,9.00
2017-10-31T20:37:52.988Z,9.10
2017-10-31T20:40:19.279Z,9.10
2017-10-31T20:42:45.656Z,9.10
2017-10-31T20:48:11.013Z,9.10
2017-10-31T20:50:37.487Z,9.10
2017-10-31T20:53:11.306Z,9.10
2017-10-31T20:55:37.788Z,9.10
2017-10-31T20:58:05.066Z,9.10
2017-10-31T21:00:31.539Z,9.10
2017-10-31T21:02:58.548Z,9.10
2017-10-31T21:05:25.852Z,9.10
2017-10-31T21:07:52.402Z,9.10
2017-10-31T21:10:18.714Z,9.00
2017-10-31T21:12:44.973Z,9.00
2017-10-31T21:15:11.212Z,9.10
2017-10-31T21:17:37.500Z,9.10
2017-10-31T21:20:03.914Z,9.10
2017-10-31T21:22:30.198Z,9.10
2017-10-31T21:24:56.469Z,9.10
2017-10-31T21:27:22.778Z,9.00
2017-10-31T21:29:49.314Z,9.10
2017-10-31T21:32:15.558Z,9.10
2017-10-31T21:34:41.843Z,9.10
2017-10-31T21:37:08.122Z,9.10
2017-10-31T21:39:34.599Z,9.10
2017-10-31T21:42:00.965Z,9.10
2017-10-31T21:44:27.298Z,9.00
2017-10-31T21:46:53.738Z,9.10
2017-10-31T21:49:23.594Z,9.10
2017-10-31T21:51:49.837Z,9.10
2017-10-31T21:54:16.149Z,9.10
2017-10-31T21:56:42.498Z,9.10
2017-10-31T21:59:09.329Z,9.10
2017-10-31T22:01:35.982Z,9.10
2017-10-31T22:04:02.281Z,9.10
2017-10-31T22:06:28.618Z,9.10
2017-10-31T22:08:54.919Z,9.10
2017-10-31T22:11:21.209Z,9.10
2017-10-31T22:13:47.453Z,9.10
2017-10-31T22:16:13.737Z,9.00
2017-10-31T22:18:40.073Z,9.10
2017-10-31T22:21:07.133Z,9.00
2017-10-31T22:23:33.445Z,9.00
2017-10-31T22:25:59.798Z,9.00
2017-10-31T22:28:26.124Z,9.00
2017-10-31T22:30:52.422Z,9.00
2017-10-31T22:33:18.812Z,8.90
2017-10-31T22:35:45.108Z,9.00
2017-10-31T22:38:11.375Z,9.00
2017-10-31T22:40:37.662Z,9.00
2017-10-31T22:43:03.970Z,9.00
2017-10-31T22:45:30.205Z,9.00
2017-10-31T22:47:56.481Z,9.00
2017-10-31T22:50:22.934Z,8.90
2017-10-31T22:52:49.251Z,8.90
2017-10-31T22:55:15.753Z,8.90
2017-10-31T22:57:42.102Z,8.90
2017-10-31T23:00:08.337Z,8.90
2017-10-31T23:02:34.641Z,8.90
2017-10-31T23:05:01.137Z,8.90
2017-10-31T23:07:27.559Z,8.90
2017-10-31T23:09:53.914Z,8.80
2017-10-31T23:12:20.148Z,8.90
2017-10-31T23:14:46.422Z,8.80
2017-10-31T23:17:12.664Z,8.90
2017-10-31T23:19:39.015Z,8.80
2017-10-31T23:22:05.400Z,8.90
2017-10-31T23:24:31.726Z,8.90
2017-10-31T23:26:58.110Z,8.90
2017-10-31T23:29:24.401Z,8.90
2017-10-31T23:31:50.621Z,8.80
2017-10-31T23:34:16.917Z,8.80
2017-10-31T23:36:43.177Z,8.70
2017-10-31T23:39:09.512Z,8.80
2017-10-31T23:41:36.218Z,8.80
2017-10-31T23:44:02.738Z,8.80
2017-10-31T23:46:29.005Z,8.90
2017-10-31T23:48:55.232Z,8.80
2017-10-31T23:51:21.570Z,8.80
2017-10-31T23:53:47.981Z,8.80
2017-10-31T23:56:18.703Z,8.80
2017-10-31T23:58:45.118Z,8.80
